createdAt,value
2018-04-30T00:01:08.080Z,98639
2018-04-30T00:03:34.156Z,98633
2018-04-30T00:06:00.244Z,98631
2018-04-30T00:08:26.319Z,98636
2018-04-30T00:10:53.152Z,98633
2018-04-30T00:13:19.968Z,98633
2018-04-30T00:15:46.040Z,98622
2018-04-30T00:18:12.130Z,98620
2018-04-30T00:20:38.204Z,98611
2018-04-30T00:23:19.024Z,98607
2018-04-30T00:26:09.897Z,98610
2018-04-30T00:28:42.668Z,98597
2018-04-30T00:31:36.357Z,98593
2018-04-30T00:37:15.225Z,98589
2018-04-30T00:39:46.711Z,98589
2018-04-30T00:42:22.100Z,98576
2018-04-30T00:44:54.770Z,98571
2018-04-30T00:47:39.152Z,98565
2018-04-30T00:50:05.321Z,98558
2018-04-30T00:58:54.744Z,98552
2018-04-30T01:04:40.100Z,98540
2018-04-30T01:07:12.840Z,98538
2018-04-30T01:09:47.467Z,98536
2018-04-30T01:12:32.878Z,98537
2018-04-30T01:14:58.968Z,98550
2018-04-30T01:17:25.052Z,98552
2018-04-30T01:19:51.883Z,98537
2018-04-30T01:22:17.952Z,98519
2018-04-30T01:24:44.036Z,98525
2018-04-30T01:27:10.121Z,98520
2018-04-30T01:29:36.279Z,98524
2018-04-30T01:32:02.301Z,98519
2018-04-30T01:34:28.381Z,98510
2018-04-30T01:36:54.468Z,98500
2018-04-30T01:39:20.547Z,98512
2018-04-30T01:41:46.637Z,98505
2018-04-30T01:44:13.492Z,98494
2018-04-30T01:46:39.569Z,98485
2018-04-30T01:49:05.651Z,98479
2018-04-30T01:51:31.732Z,98475
2018-04-30T01:53:57.809Z,98469
2018-04-30T01:56:23.896Z,98466
2018-04-30T01:58:50.717Z,98474
2018-04-30T02:01:16.796Z,98470
2018-04-30T02:03:49.173Z,98463
2018-04-30T02:06:15.249Z,98460
2018-04-30T02:08:41.331Z,98460
2018-04-30T02:11:07.408Z,98450
2018-04-30T02:13:34.227Z,98457
2018-04-30T02:16:00.313Z,98447
2018-04-30T02:18:26.393Z,98444
2018-04-30T02:20:52.475Z,98434
2018-04-30T02:23:18.569Z,98432
2018-04-30T02:25:45.392Z,98436
2018-04-30T02:28:11.470Z,98425
2018-04-30T02:30:37.551Z,98420
2018-04-30T02:33:04.368Z,98418
2018-04-30T02:35:30.451Z,98423
2018-04-30T02:37:56.528Z,98423
2018-04-30T02:40:22.609Z,98421
2018-04-30T02:42:48.764Z,98412
2018-04-30T02:45:14.840Z,98425
2018-04-30T02:47:40.936Z,98418
2018-04-30T02:50:07.759Z,98413
2018-04-30T02:52:33.853Z,98404
2018-04-30T02:54:59.929Z,98396
2018-04-30T02:57:26.017Z,98394
2018-04-30T02:59:52.092Z,98397
2018-04-30T03:02:18.933Z,98393
2018-04-30T03:04:45.753Z,98381
2018-04-30T03:07:11.833Z,98386
2018-04-30T03:09:37.920Z,98384
2018-04-30T03:12:04.741Z,98388
2018-04-30T03:14:30.820Z,98385
2018-04-30T03:16:56.888Z,98374
2018-04-30T03:19:22.973Z,98376
2018-04-30T03:21:49.036Z,98378
2018-04-30T03:24:15.120Z,98389
2018-04-30T03:26:41.207Z,98388
2018-04-30T03:29:07.299Z,98397
2018-04-30T03:31:33.417Z,98385
2018-04-30T03:33:59.504Z,98390
2018-04-30T03:36:26.380Z,98388
2018-04-30T03:38:52.464Z,98387
2018-04-30T03:41:19.284Z,98389
2018-04-30T03:43:45.372Z,98388
2018-04-30T03:46:11.456Z,98383
2018-04-30T03:48:38.268Z,98386
2018-04-30T03:51:04.347Z,98380
2018-04-30T03:53:30.420Z,98380
2018-04-30T03:55:56.500Z,98377
2018-04-30T03:58:22.568Z,98372
2018-04-30T04:01:07.232Z,98383
2018-04-30T04:03:52.073Z,98382
2018-04-30T04:09:27.501Z,98385
2018-04-30T04:11:54.321Z,98377
2018-04-30T04:14:20.375Z,98377
2018-04-30T04:16:46.440Z,98381
2018-04-30T04:19:12.496Z,98383
2018-04-30T04:21:38.569Z,98379
2018-04-30T04:24:04.620Z,98378
2018-04-30T04:26:30.693Z,98378
2018-04-30T04:28:57.504Z,98389
2018-04-30T04:31:23.575Z,98376
2018-04-30T04:33:49.632Z,98375
2018-04-30T04:36:15.723Z,98366
2018-04-30T04:38:41.784Z,98369
2018-04-30T04:41:07.907Z,98375
2018-04-30T04:43:34.676Z,98367
2018-04-30T04:46:00.733Z,98361
2018-04-30T04:48:26.812Z,98370
2018-04-30T04:50:52.871Z,98366
2018-04-30T04:53:19.684Z,98372
2018-04-30T04:55:45.763Z,98374
2018-04-30T04:58:11.844Z,98380
2018-04-30T05:00:37.917Z,98361
2018-04-30T05:03:03.991Z,98367
2018-04-30T05:05:30.055Z,98366
2018-04-30T05:07:56.139Z,98367
2018-04-30T05:10:22.219Z,98367
2018-04-30T05:12:48.300Z,98376
2018-04-30T05:15:14.379Z,98377
2018-04-30T05:17:40.456Z,98374
2018-04-30T05:20:06.545Z,98388
2018-04-30T05:22:32.664Z,98374
2018-04-30T05:24:58.744Z,98376
2018-04-30T05:27:25.580Z,98367
2018-04-30T05:29:52.409Z,98371
2018-04-30T05:32:18.480Z,98372
2018-04-30T05:34:44.574Z,98370
2018-04-30T05:37:11.450Z,98366
2018-04-30T05:39:37.533Z,98361
2018-04-30T05:42:03.615Z,98354
2018-04-30T05:44:29.704Z,98365
2018-04-30T05:46:56.519Z,98361
2018-04-30T05:49:22.605Z,98371
2018-04-30T05:51:48.683Z,98373
2018-04-30T05:54:15.524Z,98371
2018-04-30T05:56:42.361Z,98377
2018-04-30T05:59:08.436Z,98383
2018-04-30T06:01:34.524Z,98370
2018-04-30T06:04:00.604Z,98368
2018-04-30T06:06:26.688Z,98369
2018-04-30T06:08:53.504Z,98376
2018-04-30T06:11:19.601Z,98363
2018-04-30T06:13:45.680Z,98364
2018-04-30T06:16:12.513Z,98374
2018-04-30T06:18:38.602Z,98380
2018-04-30T06:21:04.688Z,98388
2018-04-30T06:23:30.768Z,98383
2018-04-30T06:25:56.852Z,98376
2018-04-30T06:28:22.930Z,98374
2018-04-30T06:30:49.008Z,98387
2018-04-30T06:33:15.104Z,98373
2018-04-30T06:35:41.179Z,98382
2018-04-30T06:38:07.280Z,98390
2018-04-30T06:40:33.368Z,98373
2018-04-30T06:43:00.196Z,98391
2018-04-30T06:45:26.266Z,98377
2018-04-30T06:47:52.358Z,98382
2018-04-30T06:50:19.172Z,98389
2018-04-30T06:52:45.251Z,98399
2018-04-30T06:55:11.327Z,98390
2018-04-30T06:57:37.427Z,98396
2018-04-30T07:00:03.497Z,98398
2018-04-30T07:02:33.133Z,98393
2018-04-30T07:08:17.161Z,98390
2018-04-30T07:10:43.240Z,98389
2018-04-30T07:13:09.328Z,98411
2018-04-30T07:15:36.147Z,98405
2018-04-30T07:18:02.228Z,98407
2018-04-30T07:20:28.313Z,98400
2018-04-30T07:22:54.404Z,98399
2018-04-30T07:25:20.504Z,98398
2018-04-30T07:27:46.626Z,98403
2018-04-30T07:30:13.420Z,98402
2018-04-30T07:32:39.505Z,98402
2018-04-30T07:35:05.601Z,98419
2018-04-30T07:37:32.425Z,98415
2018-04-30T07:40:20.190Z,98424
2018-04-30T07:42:46.267Z,98435
2018-04-30T07:45:12.356Z,98433
2018-04-30T07:47:38.439Z,98446
2018-04-30T07:50:04.520Z,98461
2018-04-30T07:52:30.605Z,98471
2018-04-30T07:54:57.432Z,98491
2018-04-30T07:57:24.252Z,98513
2018-04-30T07:59:51.072Z,98516
2018-04-30T08:02:17.128Z,98524
2018-04-30T08:04:43.195Z,98512
2018-04-30T08:07:09.256Z,98516
2018-04-30T08:09:35.320Z,98519
2018-04-30T08:12:02.136Z,98515
2018-04-30T08:14:28.197Z,98539
2018-04-30T08:16:55.012Z,98553
2018-04-30T08:19:21.074Z,98560
2018-04-30T08:21:47.139Z,98566
2018-04-30T08:24:13.211Z,98583
2018-04-30T08:26:40.018Z,98583
2018-04-30T08:29:06.826Z,98596
2018-04-30T08:31:32.889Z,98599
2018-04-30T08:37:06.875Z,98637
2018-04-30T08:39:32.942Z,98651
2018-04-30T08:41:59.024Z,98646
2018-04-30T08:44:25.084Z,98676
2018-04-30T08:46:51.151Z,98661
2018-04-30T08:49:17.956Z,98672
2018-04-30T08:51:44.041Z,98676
2018-04-30T08:54:10.116Z,98685
2018-04-30T08:56:36.199Z,98719
2018-04-30T08:59:02.304Z,98724
2018-04-30T09:01:28.399Z,98744
2018-04-30T09:03:54.494Z,98732
2018-04-30T09:06:20.572Z,98746
2018-04-30T09:08:47.397Z,98742
2018-04-30T09:11:13.473Z,98745
2018-04-30T09:13:39.564Z,98732
2018-04-30T09:16:06.408Z,98756
2018-04-30T09:18:33.235Z,98771
2018-04-30T09:20:59.325Z,98781
2018-04-30T09:23:25.404Z,98786
2018-04-30T09:25:52.216Z,98786
2018-04-30T09:28:19.061Z,98797
2018-04-30T09:30:45.136Z,98806
2018-04-30T09:33:11.235Z,98801
2018-04-30T09:35:38.056Z,98793
2018-04-30T09:38:04.128Z,98824
2018-04-30T09:40:30.211Z,98817
2018-04-30T09:42:56.279Z,98817
2018-04-30T09:45:22.355Z,98818
2018-04-30T09:47:48.440Z,98828
2018-04-30T09:50:14.588Z,98816
2018-04-30T09:52:40.660Z,98827
2018-04-30T09:55:07.492Z,98846
2018-04-30T09:57:34.305Z,98856
2018-04-30T10:00:00.394Z,98872
2018-04-30T10:02:26.479Z,98867
2018-04-30T10:04:52.549Z,98858
2018-04-30T10:07:18.645Z,98861
2018-04-30T10:09:44.712Z,98865
2018-04-30T10:12:10.792Z,98868
2018-04-30T10:14:37.615Z,98874
2018-04-30T10:17:03.679Z,98881
2018-04-30T10:19:29.748Z,98883
2018-04-30T10:21:55.834Z,98893
2018-04-30T10:24:21.899Z,98898
2018-04-30T10:26:47.963Z,98891
2018-04-30T10:29:14.770Z,98894
2018-04-30T10:31:40.854Z,98900
2018-04-30T10:34:06.934Z,98900
2018-04-30T10:36:32.996Z,98890
2018-04-30T10:38:59.072Z,98882
2018-04-30T10:41:25.147Z,98886
2018-04-30T10:43:51.212Z,98874
2018-04-30T10:46:17.272Z,98887
2018-04-30T10:48:44.096Z,98875
2018-04-30T10:51:10.160Z,98893
2018-04-30T10:53:36.240Z,98884
2018-04-30T10:56:02.321Z,98880
2018-04-30T10:58:28.403Z,98886
2018-04-30T11:00:54.493Z,98884
2018-04-30T11:03:20.575Z,98874
2018-04-30T11:05:47.393Z,98886
2018-04-30T11:08:13.485Z,98887
2018-04-30T11:10:39.584Z,98903
2018-04-30T11:13:05.666Z,98891
2018-04-30T11:15:31.749Z,98903
2018-04-30T11:17:57.828Z,98886
2018-04-30T11:20:23.896Z,98886
2018-04-30T11:22:49.987Z,98883
2018-04-30T11:25:16.068Z,98880
2018-04-30T11:27:42.175Z,98891
2018-04-30T11:30:08.989Z,98899
2018-04-30T11:32:35.816Z,98894
2018-04-30T11:35:02.646Z,98894
2018-04-30T11:37:28.736Z,98895
2018-04-30T11:39:54.902Z,98901
2018-04-30T11:42:20.969Z,98903
2018-04-30T11:44:47.067Z,98893
2018-04-30T11:47:13.903Z,98881
2018-04-30T11:49:39.993Z,98882
2018-04-30T11:52:06.092Z,98872
2018-04-30T11:54:32.183Z,98860
2018-04-30T11:56:59.012Z,98864
2018-04-30T11:59:25.091Z,98868
2018-04-30T12:01:51.184Z,98878
2018-04-30T12:04:18.003Z,98872
2018-04-30T12:06:44.091Z,98890
2018-04-30T12:09:10.203Z,98883
2018-04-30T12:11:36.280Z,98892
2018-04-30T12:14:02.365Z,98890
2018-04-30T12:16:28.455Z,98887
2018-04-30T12:18:55.277Z,98888
2018-04-30T12:21:22.103Z,98893
2018-04-30T12:23:48.169Z,98891
2018-04-30T12:26:14.263Z,98882
2018-04-30T12:28:46.821Z,98893
2018-04-30T12:31:12.919Z,98891
2018-04-30T12:33:39.012Z,98889
2018-04-30T12:36:05.116Z,98904
2018-04-30T12:38:31.185Z,98907
2018-04-30T12:40:57.272Z,98919
2018-04-30T12:43:23.363Z,98920
2018-04-30T12:45:49.433Z,98938
2018-04-30T12:48:16.256Z,98931
2018-04-30T12:50:42.400Z,98925
2018-04-30T12:53:08.428Z,98930
2018-04-30T12:55:35.249Z,98934
2018-04-30T12:58:01.369Z,98952
2018-04-30T13:00:27.464Z,98940
2018-04-30T13:02:53.568Z,98963
2018-04-30T13:05:19.684Z,98963
2018-04-30T13:07:45.750Z,98968
2018-04-30T13:10:11.833Z,98964
2018-04-30T13:12:38.674Z,98969
2018-04-30T13:15:05.508Z,98984
2018-04-30T13:17:32.356Z,99002
2018-04-30T13:19:58.432Z,98997
2018-04-30T13:22:24.521Z,99009
2018-04-30T13:24:51.331Z,99019
2018-04-30T13:27:17.395Z,99035
2018-04-30T13:29:44.208Z,99025
2018-04-30T13:32:10.274Z,99033
2018-04-30T13:34:36.349Z,99035
2018-04-30T13:37:02.414Z,99037
2018-04-30T13:39:28.491Z,99048
2018-04-30T13:41:54.556Z,99047
2018-04-30T13:44:21.379Z,99038
2018-04-30T13:46:47.440Z,99048
2018-04-30T13:49:13.512Z,99048
2018-04-30T13:51:39.574Z,99039
2018-04-30T13:54:06.394Z,99034
2018-04-30T13:56:32.472Z,99038
2018-04-30T13:58:58.577Z,99035
2018-04-30T14:01:24.657Z,99031
2018-04-30T14:03:50.775Z,99023
2018-04-30T14:06:16.860Z,99013
2018-04-30T14:08:42.928Z,99022
2018-04-30T14:11:09.011Z,99016
2018-04-30T14:13:35.087Z,99016
2018-04-30T14:16:01.220Z,99022
2018-04-30T14:18:27.300Z,99014
2018-04-30T14:20:53.385Z,99003
2018-04-30T14:23:19.460Z,99012
2018-04-30T14:25:45.545Z,99016
2018-04-30T14:28:12.359Z,99018
2018-04-30T14:30:38.460Z,99020
2018-04-30T14:33:04.549Z,99010
2018-04-30T14:35:30.628Z,99016
2018-04-30T14:37:56.716Z,99018
2018-04-30T14:40:22.800Z,99022
2018-04-30T14:42:48.891Z,99020
2018-04-30T14:45:14.968Z,99014
2018-04-30T14:47:41.801Z,99006
2018-04-30T14:50:08.623Z,99014
2018-04-30T14:52:34.754Z,99012
2018-04-30T14:55:00.799Z,99009
2018-04-30T14:57:27.634Z,99020
2018-04-30T14:59:53.708Z,99019
2018-04-30T15:02:19.803Z,99020
2018-04-30T15:04:46.616Z,99013
2018-04-30T15:07:13.460Z,99026
2018-04-30T15:09:39.539Z,99021
2018-04-30T15:12:05.623Z,99025
2018-04-30T15:14:31.707Z,99031
2018-04-30T15:16:57.788Z,99033
2018-04-30T15:19:24.653Z,99035
2018-04-30T15:21:51.447Z,99039
2018-04-30T15:24:17.528Z,99033
2018-04-30T15:26:43.611Z,99055
2018-04-30T15:29:10.440Z,99039
2018-04-30T15:31:36.516Z,99056
2018-04-30T15:34:02.605Z,99050
2018-04-30T15:36:29.424Z,99050
2018-04-30T15:38:55.512Z,99057
2018-04-30T15:41:21.591Z,99058
2018-04-30T15:43:47.677Z,99058
2018-04-30T15:46:13.757Z,99069
2018-04-30T15:48:40.636Z,99061
2018-04-30T15:51:06.693Z,99064
2018-04-30T15:53:32.776Z,99072
2018-04-30T15:55:58.877Z,99066
2018-04-30T15:58:25.711Z,99075
2018-04-30T16:00:52.544Z,99063
2018-04-30T16:03:18.628Z,99064
2018-04-30T16:05:44.708Z,99066
2018-04-30T16:08:11.529Z,99075
2018-04-30T16:10:37.617Z,99072
2018-04-30T16:13:03.681Z,99089
2018-04-30T16:15:29.795Z,99077
2018-04-30T16:17:55.876Z,99073
2018-04-30T16:20:21.974Z,99081
2018-04-30T16:22:48.037Z,99064
2018-04-30T16:25:14.124Z,99069
2018-04-30T16:27:40.950Z,99080
2018-04-30T16:30:07.008Z,99065
2018-04-30T16:32:33.097Z,99070
2018-04-30T16:34:59.916Z,99072
2018-04-30T16:37:26.015Z,99075
2018-04-30T16:39:52.103Z,99071
2018-04-30T16:42:18.184Z,99071
2018-04-30T16:44:44.267Z,99073
2018-04-30T16:47:11.150Z,99066
2018-04-30T16:49:37.940Z,99064
2018-04-30T16:52:04.028Z,99064
2018-04-30T16:54:30.108Z,99062
2018-04-30T16:56:56.929Z,99061
2018-04-30T16:59:22.994Z,99056
2018-04-30T17:01:49.149Z,99064
2018-04-30T17:04:15.270Z,99069
2018-04-30T17:06:41.344Z,99071
2018-04-30T17:09:08.154Z,99067
2018-04-30T17:11:34.243Z,99077
2018-04-30T17:14:00.324Z,99067
2018-04-30T17:16:26.399Z,99072
2018-04-30T17:18:52.485Z,99069
2018-04-30T17:21:18.593Z,99072
2018-04-30T17:23:44.669Z,99070
2018-04-30T17:26:10.735Z,99073
2018-04-30T17:28:36.828Z,99073
2018-04-30T17:31:02.888Z,99070
2018-04-30T17:33:28.959Z,99075
2018-04-30T17:35:55.025Z,99076
2018-04-30T17:38:21.100Z,99066
2018-04-30T17:40:47.904Z,99072
2018-04-30T17:43:13.977Z,99077
2018-04-30T17:45:40.042Z,99071
2018-04-30T17:48:06.135Z,99077
2018-04-30T17:50:32.196Z,99079
2018-04-30T17:52:58.255Z,99077
2018-04-30T17:55:24.332Z,99083
2018-04-30T17:57:50.395Z,99087
2018-04-30T18:00:16.468Z,99082
2018-04-30T18:02:42.531Z,99078
2018-04-30T18:05:08.608Z,99080
2018-04-30T18:07:34.660Z,99085
2018-04-30T18:10:00.713Z,99096
2018-04-30T18:15:59.072Z,99088
2018-04-30T18:18:25.135Z,99092
2018-04-30T18:20:51.228Z,99089
2018-04-30T18:23:17.290Z,99091
2018-04-30T18:25:43.363Z,99093
2018-04-30T18:31:15.755Z,99099
2018-04-30T18:33:41.832Z,99101
2018-04-30T18:36:07.904Z,99104
2018-04-30T18:38:33.960Z,99098
2018-04-30T18:41:00.036Z,99102
2018-04-30T18:43:26.844Z,99111
2018-04-30T18:45:52.922Z,99112
2018-04-30T18:48:18.992Z,99108
2018-04-30T18:50:45.081Z,99114
2018-04-30T18:53:11.144Z,99113
2018-04-30T18:55:37.206Z,99116
2018-04-30T18:58:04.020Z,99123
2018-04-30T19:00:30.083Z,99123
2018-04-30T19:02:56.148Z,99124
2018-04-30T19:05:22.216Z,99120
2018-04-30T19:07:49.033Z,99122
2018-04-30T19:10:15.101Z,99126
2018-04-30T19:12:41.180Z,99130
2018-04-30T19:15:07.243Z,99131
2018-04-30T19:17:34.049Z,99131
2018-04-30T19:20:00.107Z,99135
2018-04-30T19:22:26.916Z,99132
2018-04-30T19:24:52.984Z,99132
2018-04-30T19:27:19.059Z,99131
2018-04-30T19:29:45.132Z,99127
2018-04-30T19:32:11.956Z,99121
2018-04-30T19:34:38.760Z,99120
2018-04-30T19:37:04.903Z,99111
2018-04-30T19:39:30.912Z,99109
2018-04-30T19:41:56.968Z,99104
2018-04-30T19:44:23.786Z,99109
2018-04-30T19:46:49.885Z,99103
2018-04-30T19:49:16.699Z,99106
2018-04-30T19:51:43.501Z,99119
2018-04-30T19:54:09.567Z,99125
2018-04-30T19:56:36.411Z,99116
2018-04-30T19:59:03.216Z,99126
2018-04-30T20:01:29.271Z,99129
2018-04-30T20:03:56.084Z,99125
2018-04-30T20:06:22.152Z,99131
2018-04-30T20:08:48.325Z,99132
2018-04-30T20:11:14.321Z,99131
2018-04-30T20:13:40.376Z,99127
2018-04-30T20:16:06.449Z,99133
2018-04-30T20:18:32.512Z,99137
2018-04-30T20:20:58.575Z,99141
2018-04-30T20:23:24.662Z,99147
2018-04-30T20:25:50.744Z,99149
2018-04-30T20:28:17.544Z,99152
2018-04-30T20:30:43.608Z,99163
2018-04-30T20:33:10.408Z,99159
2018-04-30T20:35:36.477Z,99162
2018-04-30T20:38:03.319Z,99165
2018-04-30T20:40:29.393Z,99167
2018-04-30T20:42:55.476Z,99163
2018-04-30T20:45:22.290Z,99164
2018-04-30T20:47:48.364Z,99154
2018-04-30T20:50:14.424Z,99153
2018-04-30T20:52:40.567Z,99156
2018-04-30T20:55:07.607Z,99157
2018-04-30T20:57:40.244Z,99152
2018-04-30T21:00:06.358Z,99159
2018-04-30T21:02:33.149Z,99156
2018-04-30T21:04:59.223Z,99165
2018-04-30T21:07:25.299Z,99171
2018-04-30T21:10:20.796Z,99180
2018-04-30T21:12:47.888Z,99181
2018-04-30T21:15:13.952Z,99193
2018-04-30T21:17:40.056Z,99188
2018-04-30T21:20:08.104Z,99190
2018-04-30T21:22:34.935Z,99189
2018-04-30T21:25:15.592Z,99193
2018-04-30T21:27:41.656Z,99201
2018-04-30T21:30:08.462Z,99193
2018-04-30T21:32:34.599Z,99203
2018-04-30T21:35:00.656Z,99207
2018-04-30T21:37:43.028Z,99204
2018-04-30T21:40:12.731Z,99222
2018-04-30T21:43:04.497Z,99213
2018-04-30T21:45:35.220Z,99215
2018-04-30T21:48:17.604Z,99207
2018-04-30T21:50:51.265Z,99212
2018-04-30T21:56:23.681Z,99219
2018-04-30T21:58:49.771Z,99230
2018-04-30T22:01:15.840Z,99228
2018-04-30T22:03:41.957Z,99232
2018-04-30T22:06:08.033Z,99228
2018-04-30T22:08:34.847Z,99232
2018-04-30T22:11:01.681Z,99228
2018-04-30T22:13:27.760Z,99237
2018-04-30T22:15:53.835Z,99227
2018-04-30T22:18:19.908Z,99230
2018-04-30T22:21:10.604Z,99236
2018-04-30T22:23:36.675Z,99237
2018-04-30T22:26:02.760Z,99233
2018-04-30T22:28:39.956Z,99234
2018-04-30T22:31:06.040Z,99244
2018-04-30T22:33:32.103Z,99238
2018-04-30T22:35:58.188Z,99241
2018-04-30T22:38:32.454Z,99247
2018-04-30T22:41:01.933Z,99258
2018-04-30T22:43:28.748Z,99254
2018-04-30T22:46:08.073Z,99256
2018-04-30T22:48:34.157Z,99258
2018-04-30T22:51:00.239Z,99257
2018-04-30T22:53:26.313Z,99247
2018-04-30T22:55:52.438Z,99255
2018-04-30T22:58:18.515Z,99278
2018-04-30T23:00:44.579Z,99299
2018-04-30T23:03:10.645Z,99291
2018-04-30T23:05:36.711Z,99296
2018-04-30T23:08:03.517Z,99290
2018-04-30T23:10:29.592Z,99310
2018-04-30T23:12:55.660Z,99306
2018-04-30T23:15:21.754Z,99310
2018-04-30T23:17:47.816Z,99291
2018-04-30T23:20:13.867Z,99290
2018-04-30T23:22:40.673Z,99285
2018-04-30T23:25:06.747Z,99285
2018-04-30T23:27:33.557Z,99286
2018-04-30T23:29:59.624Z,99285
2018-04-30T23:32:25.696Z,99276
2018-04-30T23:34:51.757Z,99277
2018-04-30T23:37:17.824Z,99279
2018-04-30T23:39:43.888Z,99270
2018-04-30T23:42:09.960Z,99274
2018-04-30T23:44:36.019Z,99278
2018-04-30T23:47:02.093Z,99278
2018-04-30T23:49:28.172Z,99285
2018-04-30T23:51:54.236Z,99282
2018-04-30T23:54:21.048Z,99283
2018-04-30T23:56:47.141Z,99286
2018-04-30T23:59:13.220Z,99274
